Time;durP1;ratioP1;P1;durP2;ratioP2;P2;SDS_P1;SDS_P2;PMS_P1;PMS_P2;Temp;Humidity;BMP_temperature;BMP_pressure;BME280_temperature;BME280_humidity;BME280_pressure;Samples;Min_cycle;Max_cycle;Signal;HPM_P1;HPM_P2
2022/12/01 00:01:34;;;;;;;215.55;127.90;;;;;;;14.99;76.39;99110.06;4947059;29;20057;-59
2022/12/01 00:04:22;;;;;;;251.25;132.77;;;;;;;15.00;76.65;99109.81;4947528;28;20134;-58
2022/12/01 00:07:11;;;;;;;229.50;131.55;;;;;;;14.91;76.51;99110.41;4952800;28;20129;-59
2022/12/01 00:10:24;;;;;;;233.68;131.93;;;;;;;14.95;76.71;99117.00;4950795;28;20161;-59
2022/12/01 00:13:13;;;;;;;232.52;131.07;;;;;;;14.90;76.86;99114.16;4966160;28;20055;-59
2022/12/01 00:16:02;;;;;;;244.88;130.50;;;;;;;14.87;77.14;99100.06;4956052;28;20138;-59
2022/12/01 00:18:52;;;;;;;228.05;133.05;;;;;;;14.85;77.40;99106.75;4947286;29;20063;-59
2022/12/01 00:21:41;;;;;;;243.63;135.88;;;;;;;14.92;77.44;99117.44;4947353;29;20059;-59
2022/12/01 00:24:24;;;;;;;248.63;136.05;;;;;;;14.93;77.26;99111.00;4946889;29;20142;-60
2022/12/01 00:27:13;;;;;;;246.32;135.10;;;;;;;14.96;77.45;99118.63;4967691;28;20142;-58
2022/12/01 00:29:55;;;;;;;246.35;136.07;;;;;;;14.88;77.40;99107.13;4952943;28;20062;-58
2022/12/01 00:32:44;;;;;;;248.05;135.52;;;;;;;14.94;77.62;99121.56;4956736;28;20054;-58
2022/12/01 00:35:33;;;;;;;242.85;133.85;;;;;;;14.95;76.94;99117.00;4953952;28;20773;-58
2022/12/01 00:38:15;;;;;;;244.23;136.75;;;;;;;14.93;76.41;99114.50;4948142;28;20756;-60
2022/12/01 00:41:11;;;;;;;237.23;137.38;;;;;;;14.90;76.80;99114.97;4949361;28;20055;-57
2022/12/01 00:43:47;;;;;;;242.40;139.73;;;;;;;14.86;76.45;99116.50;4948685;29;20531;-58
2022/12/01 00:46:35;;;;;;;252.68;138.77;;;;;;;14.78;76.57;99122.25;4948634;29;20537;-59
2022/12/01 00:49:19;;;;;;;245.07;137.07;;;;;;;14.72;76.27;99123.16;4964079;28;20054;-58
2022/12/01 00:52:14;;;;;;;248.07;135.25;;;;;;;14.77;76.08;99120.56;4957762;28;20146;-59
2022/12/01 00:54:50;;;;;;;239.60;135.18;;;;;;;14.74;76.20;99121.06;4960617;28;20130;-58
2022/12/01 00:57:45;;;;;;;244.45;138.27;;;;;;;14.65;76.37;99115.16;4949780;29;20051;-59
2022/12/01 01:00:21;;;;;;;235.73;134.02;;;;;;;14.51;76.37;99119.91;4952427;28;20086;-58
2022/12/01 01:03:17;;;;;;;242.73;135.32;;;;;;;14.42;76.74;99126.66;4936858;28;20070;-60
2022/12/01 01:05:53;;;;;;;241.95;132.20;;;;;;;14.35;77.44;99132.16;4916083;29;20639;-59
2022/12/01 01:08:49;;;;;;;240.20;136.68;;;;;;;14.55;77.93;99129.19;4961438;28;20054;-59
2022/12/01 01:11:31;;;;;;;237.57;136.27;;;;;;;14.67;77.23;99122.00;4950520;28;20094;-58
2022/12/01 01:14:21;;;;;;;248.35;136.55;;;;;;;14.54;76.91;99124.00;4967787;28;20050;-59
2022/12/01 01:17:10;;;;;;;235.70;135.68;;;;;;;14.36;77.68;99131.09;4948132;28;20106;-59
2022/12/01 01:19:52;;;;;;;249.05;136.20;;;;;;;14.55;77.18;99139.97;4945207;29;20051;-59
2022/12/01 01:22:41;;;;;;;242.77;136.95;;;;;;;14.60;77.05;99140.16;4948353;29;20058;-59
2022/12/01 01:25:23;;;;;;;238.15;138.75;;;;;;;14.63;76.79;99150.50;4958451;28;20062;-59
2022/12/01 01:28:12;;;;;;;235.95;136.30;;;;;;;14.67;76.49;99159.81;4951531;28;20114;-58
2022/12/01 01:30:55;;;;;;;235.67;136.67;;;;;;;14.71;76.59;99159.31;4933581;29;20047;-58
2022/12/01 01:33:44;;;;;;;239.48;136.75;;;;;;;14.68;76.11;99158.75;4956739;28;20054;-58
2022/12/01 01:36:33;;;;;;;247.10;136.65;;;;;;;14.66;76.30;99150.03;4948459;28;20051;-59
2022/12/01 01:39:15;;;;;;;238.82;135.88;;;;;;;14.66;76.44;99151.94;4948116;28;20897;-66
2022/12/01 01:42:04;;;;;;;245.57;135.73;;;;;;;14.58;76.70;99144.13;4949942;28;20197;-65
2022/12/01 01:44:57;;;;;;;244.98;138.20;;;;;;;14.59;76.70;99152.00;4928466;28;20043;-66
2022/12/01 01:47:47;;;;;;;265.00;142.30;;;;;;;14.73;76.85;99159.91;4962101;28;20853;-65
2022/12/01 01:50:29;;;;;;;255.13;142.13;;;;;;;14.75;76.09;99160.50;4968296;28;20055;-66
2022/12/01 01:53:20;;;;;;;245.60;136.43;;;;;;;14.71;76.04;99170.13;4930122;29;20054;-65
2022/12/01 01:56:09;;;;;;;253.30;136.57;;;;;;;14.73;76.84;99179.69;4928972;29;20051;-67
2022/12/01 01:58:58;;;;;;;244.90;138.15;;;;;;;14.57;76.97;99174.91;4929360;29;20091;-65
2022/12/01 02:01:40;;;;;;;246.40;134.32;;;;;;;14.65;77.00;99172.69;4935662;28;20142;-67
2022/12/01 02:04:30;;;;;;;253.30;136.75;;;;;;;14.74;76.79;99173.19;4966912;28;20051;-65
2022/12/01 02:07:16;;;;;;;240.88;135.38;;;;;;;14.77;76.40;99180.88;4966713;28;20050;-66
2022/12/01 02:10:13;;;;;;;247.93;136.23;;;;;;;14.77;76.47;99180.00;4967646;28;20051;-66
2022/12/01 02:13:05;;;;;;;234.13;134.82;;;;;;;14.81;76.89;99183.94;4901457;29;20661;-66
2022/12/01 02:16:07;;;;;;;252.77;135.68;;;;;;;14.86;76.61;99189.44;4929213;28;20150;-68
2022/12/01 02:19:29;;;;;;;246.85;133.82;;;;;;;14.84;77.04;99184.28;4935410;28;20066;-67
2022/12/01 02:22:42;;;;;;;256.02;136.32;;;;;;;14.91;76.80;99191.47;4943504;28;20061;-64
2022/12/01 02:25:49;;;;;;;245.40;134.40;;;;;;;14.98;76.95;99201.13;4927616;29;20126;-65
2022/12/01 02:29:10;;;;;;;;;;;;;;;15.13;76.75;99202.56;4917899;28;20047;-66
2022/12/01 02:32:23;;;;;;;242.82;131.88;;;;;;;15.14;77.06;99206.94;4886600;29;19931;-64
2022/12/01 02:35:16;;;;;;;271.90;139.25;;;;;;;15.19;76.91;99209.75;4943750;28;20051;-63
2022/12/01 02:38:36;;;;;;;269.92;141.25;;;;;;;15.34;76.59;99215.53;4947511;28;20043;-65
2022/12/01 02:41:18;;;;;;;248.52;138.55;;;;;;;15.37;76.24;99225.09;4908952;29;20099;-65
2022/12/01 02:44:29;;;;;;;269.55;142.43;;;;;;;15.59;75.67;99231.59;4932043;28;20048;-64
2022/12/01 02:47:29;;;;;;;;;;;;;;;15.65;76.38;99236.06;4928185;29;20055;-66
2022/12/01 02:50:27;;;;;;;245.20;135.15;;;;;;;15.68;76.96;99234.75;4937378;28;19937;-66
2022/12/01 02:53:05;;;;;;;243.43;136.13;;;;;;;15.74;77.15;99231.13;4947523;28;20149;-67
2022/12/01 02:55:57;;;;;;;253.90;142.10;;;;;;;15.87;76.50;99216.53;4932630;28;20114;-66
2022/12/01 02:58:39;;;;;;;255.02;142.10;;;;;;;15.89;76.98;99208.19;4909353;29;20044;-66
2022/12/01 03:01:51;;;;;;;254.63;141.93;;;;;;;16.13;77.12;99209.00;4912673;29;20132;-65
2022/12/01 03:05:09;;;;;;;260.02;143.68;;;;;;;16.17;77.13;99213.69;4936001;28;20058;-65
2022/12/01 03:08:05;;;;;;;275.10;148.95;;;;;;;16.25;76.35;99221.44;4944401;28;20138;-65
2022/12/01 03:11:05;;;;;;;273.92;144.70;;;;;;;16.36;76.48;99218.97;4936006;28;20050;-67
2022/12/01 03:14:23;;;;;;;272.17;147.73;;;;;;;16.58;76.61;99217.22;4946887;28;20114;-67
2022/12/01 03:17:07;;;;;;;259.33;150.48;;;;;;;16.80;75.88;99214.69;4925782;29;20047;-65
2022/12/01 03:20:07;;;;;;;258.90;150.05;;;;;;;17.11;75.22;99211.72;4939681;29;20057;-65
2022/12/01 03:23:02;;;;;;;259.92;148.48;;;;;;;17.40;74.42;99213.31;4946931;28;20096;-65
2022/12/01 03:25:48;;;;;;;259.58;143.80;;;;;;;17.73;73.85;99217.09;4947030;29;20047;-66
2022/12/01 03:28:47;;;;;;;276.60;154.07;;;;;;;18.09;71.98;99225.75;4946637;28;20051;-65
2022/12/01 03:31:34;;;;;;;240.65;144.23;;;;;;;18.49;71.86;99216.50;4946588;29;20087;-66
2022/12/01 03:34:51;;;;;;;308.98;148.43;;;;;;;18.97;70.33;99214.91;4946646;29;20417;-65
2022/12/01 03:37:46;;;;;;;276.17;147.60;;;;;;;19.52;67.83;99210.19;4961052;28;20054;-66
2022/12/01 03:40:39;;;;;;;247.48;144.32;;;;;;;19.83;66.49;99209.63;4965561;28;20082;-66
2022/12/01 03:43:28;;;;;;;256.10;143.25;;;;;;;20.30;65.11;99209.59;4965635;28;20414;-66
2022/12/01 03:46:50;;;;;;;240.60;137.95;;;;;;;20.68;62.25;99206.78;4933557;29;20143;-66
2022/12/01 03:49:33;;;;;;;222.15;132.82;;;;;;;21.16;61.90;99207.41;4940995;29;20051;-67
2022/12/01 03:52:36;;;;;;;226.00;131.98;;;;;;;21.55;59.73;99212.34;4959881;28;20130;-67
2022/12/01 03:55:36;;;;;;;206.88;124.93;;;;;;;21.77;59.40;99211.25;4966374;28;20162;-66
2022/12/01 03:58:27;;;;;;;218.02;126.95;;;;;;;22.00;59.55;99218.84;4966020;28;20095;-66
2022/12/01 04:01:16;;;;;;;208.15;124.55;;;;;;;22.20;59.78;99215.25;4966055;28;20822;-66
2022/12/01 04:03:58;;;;;;;207.90;124.15;;;;;;;22.36;58.55;99226.19;4951556;29;20507;-67
2022/12/01 04:06:55;;;;;;;210.30;125.40;;;;;;;22.53;58.44;99231.28;4951239;29;20653;-67
2022/12/01 04:09:44;;;;;;;213.73;126.97;;;;;;;22.64;57.59;99233.72;4949210;28;20079;-65
2022/12/01 04:12:32;;;;;;;228.88;133.02;;;;;;;22.79;56.47;99235.53;4953478;28;20484;-69
2022/12/01 04:15:27;;;;;;;235.30;136.75;;;;;;;22.80;57.09;99237.19;4951809;28;20055;-67
2022/12/01 04:18:03;;;;;;;233.93;135.90;;;;;;;23.03;56.64;99238.44;4935099;28;20050;-68
2022/12/01 04:20:52;;;;;;;250.55;138.95;;;;;;;23.28;56.18;99241.31;4966283;28;20046;-69
2022/12/01 04:26:44;;;;;;;236.60;139.18;;;;;;;23.26;55.54;99236.91;4970193;28;20043;-65
2022/12/01 04:29:26;;;;;;;236.18;137.23;;;;;;;23.36;56.49;99244.25;4969043;28;20055;-65
2022/12/01 04:32:16;;;;;;;235.38;135.27;;;;;;;23.36;56.61;99237.94;4950455;28;20055;-66
2022/12/01 04:35:05;;;;;;;242.77;137.45;;;;;;;23.28;57.44;99244.03;4946810;28;20249;-66
2022/12/01 04:37:47;;;;;;;228.63;132.75;;;;;;;23.31;57.71;99241.56;4960783;28;20154;-67
2022/12/01 04:40:36;;;;;;;222.48;125.97;;;;;;;23.56;56.11;99235.06;4958175;28;20126;-65
2022/12/01 04:43:18;;;;;;;203.30;117.10;;;;;;;23.25;56.65;99232.56;4956372;28;20046;-65
2022/12/01 04:46:07;;;;;;;185.20;110.43;;;;;;;23.12;54.78;99227.72;4954027;28;20047;-65
2022/12/01 04:48:49;;;;;;;197.38;110.50;;;;;;;23.20;55.19;99237.25;4956952;28;20055;-63
2022/12/01 04:51:38;;;;;;;186.85;109.13;;;;;;;23.16;55.01;99237.00;4943841;29;20102;-66
2022/12/01 04:54:21;;;;;;;178.20;105.20;;;;;;;22.98;52.51;99234.88;4943869;28;20061;-63
2022/12/01 04:57:10;;;;;;;178.68;101.60;;;;;;;23.09;54.37;99244.72;4958377;28;20141;-64
2022/12/01 04:59:52;;;;;;;180.35;101.78;;;;;;;23.17;53.26;99241.34;4954032;28;20105;-64
2022/12/01 05:02:42;;;;;;;176.93;99.13;;;;;;;23.10;52.22;99240.88;4945787;28;20046;-65
2022/12/01 05:05:24;;;;;;;178.52;105.05;;;;;;;23.37;52.04;99240.41;4951788;28;20684;-65
2022/12/01 05:08:13;;;;;;;172.68;98.22;;;;;;;23.65;50.75;99241.56;4947124;28;20047;-64
2022/12/01 05:11:10;;;;;;;164.95;97.15;;;;;;;23.59;51.14;99241.88;4945142;28;20348;-63
2022/12/01 05:14:00;;;;;;;161.73;95.72;;;;;;;23.70;52.88;99239.88;4960003;28;20058;-64
2022/12/01 05:16:48;;;;;;;138.70;83.65;;;;;;;23.54;48.95;99239.16;4948329;28;20046;-63
2022/12/01 05:22:31;;;;;;;127.50;71.28;;;;;;;23.80;47.85;99232.38;4956703;28;20055;-66
2022/12/01 05:25:33;;;;;;;100.50;60.47;;;;;;;23.74;47.90;99229.97;4955457;28;20043;-63
2022/12/01 05:28:25;;;;;;;91.65;54.67;;;;;;;24.01;47.20;99226.72;4949994;28;20047;-63
2022/12/01 05:31:07;;;;;;;99.97;55.97;;;;;;;23.76;45.55;99230.50;4946456;28;20788;-63
2022/12/01 05:33:56;;;;;;;87.60;51.28;;;;;;;24.23;47.92;99228.94;4952348;28;20062;-63
2022/12/01 05:36:45;;;;;;;98.00;48.42;;;;;;;24.26;46.15;99222.88;4963002;28;20051;-62
2022/12/01 05:39:27;;;;;;;104.45;48.95;;;;;;;24.30;44.06;99223.09;4940833;28;20059;-61
2022/12/01 05:42:16;;;;;;;75.95;44.92;;;;;;;24.70;43.46;99216.31;4947858;28;20041;-62
2022/12/01 05:45:06;;;;;;;71.10;45.38;;;;;;;25.20;44.65;99218.59;4952200;28;20047;-63
2022/12/01 05:47:55;;;;;;;82.50;47.55;;;;;;;25.32;42.31;99207.22;4951647;28;20082;-62
2022/12/01 05:50:51;;;;;;;81.43;46.63;;;;;;;25.35;41.30;99203.84;4938988;28;20043;-63
2022/12/01 05:53:27;;;;;;;80.65;45.63;;;;;;;25.43;43.28;99200.41;4926698;28;20047;-63
2022/12/01 05:56:15;;;;;;;79.75;47.65;;;;;;;25.42;43.13;99195.22;4946621;28;20058;-63
2022/12/01 05:59:04;;;;;;;81.82;47.85;;;;;;;25.44;41.84;99191.06;4957275;28;20506;-62
2022/12/01 06:01:47;;;;;;;95.40;48.30;;;;;;;25.36;42.13;99176.06;4947399;28;20074;-66
2022/12/01 06:04:36;;;;;;;76.88;47.80;;;;;;;25.52;41.82;99179.38;4941942;28;20051;-64
2022/12/01 06:07:25;;;;;;;90.80;51.97;;;;;;;25.67;44.68;99174.72;4942185;28;20055;-65
2022/12/01 06:10:08;;;;;;;102.15;55.28;;;;;;;25.46;42.82;99172.34;4949754;28;20051;-69
2022/12/01 06:13:03;;;;;;;101.22;53.50;;;;;;;25.86;43.04;99164.47;4940067;28;20115;-69
2022/12/01 06:15:59;;;;;;;91.57;56.10;;;;;;;25.95;40.89;99162.66;4942920;28;20138;-67
2022/12/01 06:18:48;;;;;;;98.90;57.50;;;;;;;25.79;43.22;99161.28;4942466;28;20503;-67
2022/12/01 06:21:30;;;;;;;109.35;62.78;;;;;;;25.79;42.44;99158.53;4929065;28;20105;-67
2022/12/01 06:24:19;;;;;;;111.35;62.05;;;;;;;25.51;42.51;99163.19;4954081;28;20142;-65
2022/12/01 06:27:01;;;;;;;130.43;66.93;;;;;;;25.68;44.53;99151.59;4952579;28;20141;-68
2022/12/01 06:29:50;;;;;;;121.30;67.18;;;;;;;25.66;44.14;99142.84;4944246;28;20141;-66
2022/12/01 06:32:33;;;;;;;123.80;69.15;;;;;;;25.71;44.30;99138.06;4937704;28;20055;-64
2022/12/01 06:35:22;;;;;;;124.38;68.75;;;;;;;25.51;43.72;99128.28;4950797;28;20055;-65
2022/12/01 06:38:04;;;;;;;121.95;66.18;;;;;;;25.72;43.51;99114.13;4959276;28;20070;-67
2022/12/01 06:40:53;;;;;;;117.32;62.63;;;;;;;25.90;44.70;99115.97;4948026;28;20146;-64
2022/12/01 06:43:36;;;;;;;114.75;63.80;;;;;;;25.96;44.23;99119.47;4937572;28;20067;-66
2022/12/01 06:46:26;;;;;;;108.63;62.03;;;;;;;25.71;42.24;99107.03;4955682;28;20750;-63
2022/12/01 06:49:15;;;;;;;104.30;61.25;;;;;;;25.57;42.99;99107.81;4960493;28;20069;-64
2022/12/01 06:51:57;;;;;;;111.28;62.30;;;;;;;25.36;42.54;99103.84;4949621;28;20130;-64
2022/12/01 06:54:46;;;;;;;105.90;60.45;;;;;;;25.77;43.38;99103.06;4950350;28;20137;-64
2022/12/01 06:57:28;;;;;;;111.70;54.13;;;;;;;25.73;42.10;99099.28;4951628;28;20062;-63
2022/12/01 07:00:17;;;;;;;92.88;52.05;;;;;;;25.46;42.72;99091.84;4953614;28;20054;-64
2022/12/01 07:03:06;;;;;;;88.32;52.28;;;;;;;25.40;42.92;99085.63;4949894;28;20535;-64
2022/12/01 07:06:00;;;;;;;87.40;51.88;;;;;;;25.68;42.40;99080.13;4953790;28;20047;-63
2022/12/01 07:08:42;;;;;;;96.43;53.40;;;;;;;25.70;43.66;99083.38;4949753;28;20182;-63
2022/12/01 07:11:37;;;;;;;88.95;52.03;;;;;;;25.17;42.59;99073.66;4935147;28;20114;-62
2022/12/01 07:14:26;;;;;;;105.45;56.40;;;;;;;25.72;42.53;99067.41;4945375;28;20509;-63
2022/12/01 07:17:15;;;;;;;106.97;55.83;;;;;;;25.38;41.87;99061.19;4954343;28;20468;-63
2022/12/01 07:19:57;;;;;;;93.10;55.65;;;;;;;25.75;41.53;99044.81;4955854;28;20077;-64
2022/12/01 07:22:46;;;;;;;97.97;55.88;;;;;;;26.03;42.50;99037.38;4946822;28;20047;-62
2022/12/01 07:25:28;;;;;;;92.93;52.22;;;;;;;25.78;40.71;99030.47;4946378;28;20075;-64
2022/12/01 07:28:17;;;;;;;88.90;54.58;;;;;;;25.61;42.45;99024.78;4927542;29;20492;-63
2022/12/01 07:31:12;;;;;;;99.65;57.17;;;;;;;25.88;41.75;99027.50;4950481;28;20734;-64
2022/12/01 07:34:01;;;;;;;91.68;55.97;;;;;;;25.85;41.43;99019.03;4960591;28;20082;-64
2022/12/01 07:36:43;;;;;;;91.70;53.15;;;;;;;25.71;41.21;99019.06;4954265;28;20058;-63
2022/12/01 07:39:32;;;;;;;94.30;53.28;;;;;;;25.84;41.05;99010.00;4946792;28;20039;-65
2022/12/01 07:42:14;;;;;;;87.50;52.20;;;;;;;25.55;41.43;99011.13;4963037;28;20166;-62
2022/12/01 07:45:03;;;;;;;81.88;50.15;;;;;;;25.89;42.83;99004.38;4952591;28;20054;-64
2022/12/01 07:47:53;;;;;;;84.20;47.72;;;;;;;25.97;42.42;99002.88;4965972;28;20400;-64
2022/12/01 07:50:42;;;;;;;81.38;44.38;;;;;;;25.62;40.08;98987.91;4960836;28;20046;-64
2022/12/01 07:53:24;;;;;;;77.72;45.85;;;;;;;25.83;41.09;98986.34;4934297;28;20114;-64
2022/12/01 07:56:13;;;;;;;76.13;46.20;;;;;;;25.96;40.92;98982.78;4963494;28;20606;-64
2022/12/01 07:58:55;;;;;;;73.53;47.03;;;;;;;26.00;40.73;98976.69;4952416;28;20066;-63
2022/12/01 08:01:45;;;;;;;83.43;52.35;;;;;;;25.60;41.14;98977.22;4941636;29;20401;-64
2022/12/01 08:04:40;;;;;;;90.93;49.10;;;;;;;25.79;41.58;98968.84;4950409;28;20737;-64
2022/12/01 08:07:15;;;;;;;79.03;48.30;;;;;;;25.81;40.58;98957.53;4966558;28;20117;-64
2022/12/01 08:10:10;;;;;;;90.05;47.17;;;;;;;25.71;41.18;98958.59;4966330;28;20121;-64
2022/12/01 08:13:05;;;;;;;75.53;44.60;;;;;;;25.75;40.13;98956.84;4943026;29;20071;-64
2022/12/01 08:15:46;;;;;;;79.65;43.65;;;;;;;25.65;39.87;98957.88;4928455;29;20044;-64
2022/12/01 08:18:43;;;;;;;70.18;40.67;;;;;;;25.52;40.78;98944.97;4928554;29;20051;-63
2022/12/01 08:21:21;;;;;;;65.38;39.58;;;;;;;25.79;40.18;98931.19;4948238;28;20109;-63
2022/12/01 08:24:17;;;;;;;61.42;34.95;;;;;;;25.81;39.20;98930.84;4946054;28;20050;-62
2022/12/01 08:26:53;;;;;;;60.97;35.00;;;;;;;25.64;39.14;98930.69;4967228;28;20094;-63
2022/12/01 08:29:41;;;;;;;57.33;32.35;;;;;;;25.93;38.47;98925.69;4966692;28;20722;-64
2022/12/01 08:32:23;;;;;;;60.40;33.55;;;;;;;25.89;39.76;98926.56;4965672;28;20062;-63
2022/12/01 08:35:12;;;;;;;63.75;31.50;;;;;;;25.59;38.45;98918.69;4966328;28;20114;-62
2022/12/01 08:37:56;;;;;;;52.28;30.27;;;;;;;25.94;37.71;98913.53;4965845;28;20114;-62
2022/12/01 08:40:51;;;;;;;57.40;29.45;;;;;;;25.71;38.00;98909.09;4927680;29;20059;-63
2022/12/01 08:43:27;;;;;;;51.10;28.05;;;;;;;25.95;37.90;98901.44;4954087;28;20146;-64
2022/12/01 08:46:43;;;;;;;53.17;26.85;;;;;;;25.56;38.50;98897.31;4943967;28;20113;-62
2022/12/01 08:49:19;;;;;;;46.42;26.77;;;;;;;26.02;37.81;98894.69;4958497;28;20074;-64
2022/12/01 08:52:08;;;;;;;54.13;28.42;;;;;;;25.78;38.58;98890.25;4959060;28;20067;-63
2022/12/01 08:54:50;;;;;;;48.42;26.83;;;;;;;25.74;37.72;98886.50;4945175;28;20059;-62
2022/12/01 08:57:39;;;;;;;45.13;26.77;;;;;;;25.79;37.88;98880.88;4961161;28;20050;-64
2022/12/01 09:00:22;;;;;;;41.85;26.30;;;;;;;25.75;39.02;98879.88;4957508;28;20137;-63
2022/12/01 09:03:11;;;;;;;47.78;26.20;;;;;;;25.87;39.59;98882.06;4955198;28;20055;-62
2022/12/01 09:06:00;;;;;;;48.83;27.17;;;;;;;25.98;39.19;98872.47;4955097;28;20142;-63
2022/12/01 09:08:43;;;;;;;46.55;27.25;;;;;;;25.97;38.72;98874.44;4954814;28;20150;-62
2022/12/01 09:11:33;;;;;;;50.72;26.10;;;;;;;25.82;39.36;98872.03;4936548;28;20058;-62
2022/12/01 09:14:23;;;;;;;43.42;25.70;;;;;;;25.62;38.54;98856.78;4949074;28;20712;-62
2022/12/01 09:17:14;;;;;;;45.05;26.08;;;;;;;25.68;38.51;98865.75;4952157;28;20043;-62
2022/12/01 09:20:02;;;;;;;47.40;26.77;;;;;;;25.79;39.19;98867.13;4957853;28;20075;-62
2022/12/01 09:22:51;;;;;;;43.10;27.92;;;;;;;25.64;38.85;98862.00;4957570;28;20047;-62
2022/12/01 09:25:33;;;;;;;43.22;26.58;;;;;;;25.80;39.06;98863.28;4939789;28;20078;-62
2022/12/01 09:28:23;;;;;;;44.92;27.73;;;;;;;25.80;40.25;98863.28;4958279;28;20059;-62
2022/12/01 09:31:10;;;;;;;52.63;29.67;;;;;;;25.82;40.66;98858.28;4960653;28;20068;-62
2022/12/01 09:34:09;;;;;;;47.22;29.48;;;;;;;25.60;40.11;98859.03;4957068;28;20059;-62
2022/12/01 09:36:57;;;;;;;53.55;27.73;;;;;;;25.74;39.29;98853.53;4959961;28;20100;-62
2022/12/01 09:39:46;;;;;;;40.47;24.88;;;;;;;25.71;38.37;98848.63;4955693;28;20518;-63
2022/12/01 09:42:29;;;;;;;41.63;24.95;;;;;;;25.61;37.86;98843.38;4955061;28;20059;-63
2022/12/01 09:45:31;;;;;;;37.88;22.75;;;;;;;25.64;38.45;98845.50;4958233;28;20078;-62
2022/12/01 09:48:41;;;;;;;38.45;24.10;;;;;;;25.34;37.73;98853.31;4957121;28;20055;-61
2022/12/01 09:51:35;;;;;;;40.97;23.80;;;;;;;25.44;38.26;98841.28;4956649;28;20047;-62
2022/12/01 09:54:24;;;;;;;43.28;23.98;;;;;;;25.50;38.35;98832.63;4944979;28;20097;-62
2022/12/01 09:57:31;;;;;;;49.45;27.88;;;;;;;25.46;39.86;98841.78;4955823;28;20051;-61
2022/12/01 10:00:26;;;;;;;42.33;25.85;;;;;;;25.42;39.26;98836.09;4957372;28;20986;-62
2022/12/01 10:03:31;;;;;;;36.88;23.58;;;;;;;25.46;38.62;98830.81;4953460;28;20066;-63
2022/12/01 10:06:29;;;;;;;36.35;21.55;;;;;;;25.23;37.83;98838.19;4959092;28;20105;-63
2022/12/01 10:09:20;;;;;;;45.65;22.70;;;;;;;25.13;38.21;98826.25;4957185;28;20159;-64
2022/12/01 10:12:28;;;;;;;41.30;23.75;;;;;;;25.30;39.06;98833.06;4963986;28;20424;-63
2022/12/01 10:15:34;;;;;;;40.88;22.00;;;;;;;25.17;39.27;98832.75;4953677;28;20066;-64
2022/12/01 10:18:22;;;;;;;47.55;25.15;;;;;;;25.16;40.03;98824.81;4948592;29;20079;-63
2022/12/01 10:21:38;;;;;;;47.85;25.73;;;;;;;25.24;40.16;98817.81;4929394;29;20116;-63
2022/12/01 10:24:33;;;;;;;45.83;25.83;;;;;;;24.99;41.04;98817.22;4929358;29;20130;-62
2022/12/01 10:27:28;;;;;;;44.05;26.63;;;;;;;25.09;41.51;98817.03;4949932;28;20053;-64
2022/12/01 10:30:12;;;;;;;46.45;26.77;;;;;;;24.97;42.86;98811.22;4967697;28;20074;-62
2022/12/01 10:33:23;;;;;;;49.20;28.83;;;;;;;24.93;43.90;98807.47;4962882;28;20055;-61
2022/12/01 10:35:59;;;;;;;47.05;28.45;;;;;;;24.82;47.27;98804.09;4966894;28;20527;-66
2022/12/01 10:38:48;;;;;;;53.10;31.75;;;;;;;24.86;44.03;98805.16;4967334;28;20065;-61
2022/12/01 10:42:34;;;;;;;53.28;29.40;;;;;;;24.76;45.30;98797.94;4967233;28;20434;-61
2022/12/01 10:45:27;;;;;;;55.63;30.63;;;;;;;24.59;45.58;98792.22;4946305;29;20043;-62
2022/12/01 10:48:21;;;;;;;50.88;29.95;;;;;;;24.57;45.67;98791.72;4948009;29;20732;-62
2022/12/01 10:51:16;;;;;;;54.70;31.15;;;;;;;24.39;46.59;98804.38;4955778;28;20047;-65
2022/12/01 10:54:38;;;;;;;60.03;31.85;;;;;;;24.25;46.91;98793.41;4954907;28;20097;-64
2022/12/01 10:57:36;;;;;;;49.25;30.80;;;;;;;24.10;47.45;98793.69;4952650;28;20145;-65
2022/12/01 11:00:22;;;;;;;50.45;31.45;;;;;;;23.92;48.90;98798.09;4956999;28;20057;-64
2022/12/01 11:03:40;;;;;;;59.00;34.60;;;;;;;23.73;50.58;98787.97;4956539;28;20059;-65
2022/12/01 11:06:22;;;;;;;58.92;32.13;;;;;;;23.63;51.29;98788.91;4938832;28;20066;-66
2022/12/01 11:09:20;;;;;;;57.28;32.72;;;;;;;23.41;54.41;98783.25;4952320;28;20519;-64
2022/12/01 11:12:21;;;;;;;56.28;33.05;;;;;;;23.29;53.99;98791.09;4966554;28;20149;-64
2022/12/01 11:15:28;;;;;;;54.67;32.65;;;;;;;23.07;53.62;98787.03;4929252;29;20151;-63
2022/12/01 11:18:25;;;;;;;54.65;32.70;;;;;;;23.09;55.84;98778.53;4928140;29;20559;-64
2022/12/01 11:21:25;;;;;;;56.92;33.58;;;;;;;22.96;55.63;98791.78;4967282;28;20047;-68
2022/12/01 11:24:07;;;;;;;59.40;33.67;;;;;;;22.83;55.29;98782.38;4967640;28;20649;-64
2022/12/01 11:26:58;;;;;;;62.88;35.28;;;;;;;22.71;56.94;98783.91;4966788;28;20069;-62
2022/12/01 11:29:45;;;;;;;64.28;35.10;;;;;;;22.65;57.61;98785.88;4966823;28;20046;-64
2022/12/01 11:32:45;;;;;;;62.67;36.30;;;;;;;22.60;57.78;98799.59;4966716;28;20057;-64
2022/12/01 11:35:23;;;;;;;55.70;34.53;;;;;;;22.45;57.19;98793.22;4948980;28;20384;-63
2022/12/01 11:38:21;;;;;;;69.20;35.13;;;;;;;22.38;56.83;98795.47;4943438;29;20061;-63
2022/12/01 11:41:10;;;;;;;62.47;37.25;;;;;;;22.27;59.44;98792.03;4937910;28;20043;-64
2022/12/01 11:43:52;;;;;;;61.70;35.90;;;;;;;22.17;59.44;98797.56;4950674;28;20138;-62
2022/12/01 11:46:46;;;;;;;65.05;36.38;;;;;;;22.13;59.66;98802.00;4957165;28;20126;-66
2022/12/01 11:49:56;;;;;;;56.53;36.42;;;;;;;21.96;59.67;98790.69;4954441;28;20057;-64
2022/12/01 11:52:54;;;;;;;65.20;38.15;;;;;;;21.88;59.03;98786.66;4955298;28;20058;-65
2022/12/01 11:55:36;;;;;;;61.30;37.70;;;;;;;21.78;60.15;98800.38;4961176;28;20051;-65
2022/12/01 11:58:25;;;;;;;68.93;37.42;;;;;;;21.71;60.13;98800.72;4946896;29;20773;-68
2022/12/01 12:01:25;;;;;;;75.65;37.40;;;;;;;21.72;60.10;98796.06;4928809;29;20052;-63
2022/12/01 12:04:30;;;;;;;73.28;36.72;;;;;;;21.59;60.71;98803.81;4933164;29;20059;-65
2022/12/01 12:07:25;;;;;;;78.78;37.78;;;;;;;21.48;61.22;98799.53;4959666;28;20039;-65
2022/12/01 12:10:26;;;;;;;67.38;36.47;;;;;;;21.42;61.79;98797.88;4966174;28;20047;-66
2022/12/01 12:13:22;;;;;;;80.32;39.45;;;;;;;21.34;61.76;98803.94;4964895;28;20795;-64
2022/12/01 12:16:46;;;;;;;68.18;38.30;;;;;;;21.19;62.12;98807.56;4932493;29;20122;-65
2022/12/01 12:19:37;;;;;;;77.22;40.33;;;;;;;21.19;62.30;98810.28;4883436;28;20056;-63
2022/12/01 12:23:17;;;;;;;74.03;39.17;;;;;;;21.10;62.20;98819.06;4964899;28;20188;-62
2022/12/01 12:26:07;;;;;;;81.13;39.58;;;;;;;21.06;62.56;98817.19;4930520;29;20044;-63
2022/12/01 12:29:14;;;;;;;79.13;41.90;;;;;;;20.96;61.86;98812.59;4955390;28;20162;-64
2022/12/01 12:32:16;;;;;;;95.05;44.22;;;;;;;20.95;62.53;98821.06;4959105;28;20054;-65
2022/12/01 12:35:13;;;;;;;81.50;48.70;;;;;;;20.91;62.84;98821.63;4955852;28;20075;-64
2022/12/01 12:38:11;;;;;;;89.25;45.70;;;;;;;20.83;63.14;98822.19;4942340;28;20080;-65
2022/12/01 12:41:46;;;;;;;101.25;51.63;;;;;;;20.80;62.96;98825.47;4947574;29;20048;-67
2022/12/01 12:44:53;;;;;;;;;;;;;;;20.85;62.57;98822.75;4951286;28;20055;-71
2022/12/01 12:48:06;;;;;;;105.38;53.08;;;;;;;20.72;63.71;98829.59;4951616;28;19930;-67
2022/12/01 12:51:19;;;;;;;102.95;54.97;;;;;;;20.69;63.61;98834.78;4949447;29;20062;-67
2022/12/01 12:54:39;;;;;;;99.00;55.83;;;;;;;20.73;63.67;98841.31;4946389;29;20051;-66
2022/12/01 12:57:35;;;;;;;106.82;54.08;;;;;;;20.68;63.84;98838.63;4930713;29;20241;-67
2022/12/01 13:00:29;;;;;;;102.85;53.40;;;;;;;20.64;64.06;98837.53;4938735;29;20801;-63
2022/12/01 13:03:37;;;;;;;105.55;53.22;;;;;;;20.61;65.03;98838.09;4963113;28;20047;-65
2022/12/01 13:06:51;;;;;;;92.97;52.65;;;;;;;20.51;65.30;98836.97;4964604;28;20071;-66
2022/12/01 13:09:47;;;;;;;104.13;51.97;;;;;;;20.53;65.76;98836.72;4934255;28;20078;-65
2022/12/01 13:12:38;;;;;;;108.90;54.08;;;;;;;20.51;65.11;98838.91;4967833;28;20125;-64